Iron Mountain, MI (49801)

1:38 PM CST on December 08, 2016 (GMT -0600)
East Kingsford, Aurora Bridge | | Change Station

Elev 1106 ft 45.79 °N, 88.08 °W | Updated 1 second ago

Scattered Clouds
Scattered Clouds
29.1 °F
Feels Like 29 °F
N
0.0
Wind Variable Wind from WSW
Gusts 0.0 mph

Today
High -- | Low -- °F
--% Chance of Precip.
Yesterday
High -- | Low -- °F
Precip. -- in
Pressure 30.08 in
Visibility 9.0 miles
Clouds Scattered Clouds 1900 ft
Scattered Clouds 7000 ft
Windchill 29 °F
Dew Point 15 °F
Humidity 56%
Rainfall 0.00 in
Snow Depth Not available.
7:21 AM 4:07 PM
Waxing Gibbous, 66% visible
SPECI KIMT 081936Z AUTO 33010KT 9SM SCT019 SCT070 M02/M07 A3008 RMK AO2 SNE31 P0000 T10171067
Pressure 30.08 in
Visibility 9.0 miles
Clouds Scattered Clouds 1900 ft
Scattered Clouds 7000 ft
Windchill 29 °F
Dew Point 15 °F
Humidity 56%
Rainfall 0.00 in
Snow Depth Not available.
7:21 AM 4:07 PM
Waxing Gibbous, 66% visible
SPECI KIMT 081936Z AUTO 33010KT 9SM SCT019 SCT070 M02/M07 A3008 RMK AO2 SNE31 P0000 T10171067

10-Day Weather Forecast

Almanac

Astronomy

Dec. 08, 2016 Rise Set
Actual Time
Civil Twilight
Nautical Twilight
Astronomical Twilight
Moon
Length of Visible Light
Length of Day
Tomorrow will be .
, % of the Moon is Illuminated

Today's Extremes

State Highs State Lows

Community

WunderPhotos

Upload Photos

1,956,277 photos uploaded!

WunderBlog® & News

Nearby

Air Quality

  Air Quality AQ Index Pollutant
Not available.

Snow Depth

Station Depth Elevation

Earthquake Activity

City Distance Mag. Time & Date
Minimum magnitude displayed is 2.5.

Coastal Water Temperatures

Place Temperature

Stations

Nearby Weather Stations

Station Location Temp. Windchill Dew Point Humidity Wind Precip. Elev Updated Type
                   

Watches & Warnings

There are currently no watches in effect.